GMAT

Tan Tan Airport

Tan Tan, Morocco
METAR GMAT 201800Z 01012KT 9999 BKN016 22/18 Q1013 NOSIG
Observed Flight Rules
Aug-20 @ 18:00 UTC (6 hours ago) Marginal Visual Flight Rules
Wind Visibility Clouds
10° at 12 knots 10,000+ meters
  • Broken at 1,600' AGL
Temperatures Readings
Current 22°C / 72°F
Dewpoint 18°C / 64°F
Humidity 78%
Altimeter 29.91" Hg
Pressure 1013 hPa
Elevation 200
METAR GMAT 201800Z 01012KT 9999 BKN016 22/18 Q1013 NOSIG
Observed Flight Rules
Aug-20 @ 18:00 UTC
(6 hours ago)
MVFR
Wind Visibility
10° at 12 knots 10,000+ meters
Clouds
  • Broken at 1,600' AGL
Temperature Dewpoint
22°C / 72°F 18°C / 64°F
Humidity Altimeter Pressure
78% 29.91" Hg 1013 hPa